Hlavní strana
METAR-TAF:

METAR-TAF

Letiště :

Tahiti, Francouzská Polynésie

zeměpisná šířka: 17-33S, zeměpisná délka: 149-37W, výška: 2 m

Aktuální stav počasí

Zpráva byla vytvořena před 21 minutami, v 14:00 UTC
Východní vítr 3 kt
Teplota 24°C
Vlhkost vzduchu 74%
Tlak 1012 hPa
Viditelnost 10 km a více
Žádná oblačnost pod 1500 m, nevyskytují se cumulonimby.

METAR: NTAA 191400Z AUTO 10003KT CAVOK 24/19 Q1012

Čas: 04:21 (14:21 UTC)

Předpověď počasí

Zpráva byla vytvořena před 3 hodinami a 21 minutami, v 11:00 UTC
Předpověď platná od 19 v 12 UTC do 20 v 18 UTC
vítr z různých směrů 3 kt
Viditelnost 10 km a více
Skoro jasno ve výšce 2500 ft
Polojasno ve výšce 5000 ft
Změna
od 19 v 18 UTC do 19 v 20 UTC
Severovýchodní vítr 15 kt
Změna
od 20 v 02 UTC do 20 v 04 UTC
vítr z různých směrů 3 kt

TAF: NTAA 191100Z 1912/2018 VRB03KT 9999 FEW025 SCT050 BECMG 1918/1920 05015KT BECMG 2002/2004 VRB03KT

Stav a předpovědi počasí z více než 4 000 letišť (zprávy METAR a TAF).

Červené a žluté tečky na mapě představují dostupné meteorologické stanice.

Když kurzor umístíte na tečku, zobrazí se název stanice.

Pak kliknutím zobrazíte stav a předpověď počasí.

Chcete-li změnit mapu, kliknutím na zelené tlačítko se znaménkem +mapu přiblížíte, kliknutím na zelené tlačítko se znaménkem – mapu oddálíte a kliknutím na zelené šipky přejdete na sousední mapy.


METAR-TAF: